Time;durP1;ratioP1;P1;durP2;ratioP2;P2;SDS_P1;SDS_P2;PMS_P1;PMS_P2;Temp;Humidity;BMP_temperature;BMP_pressure;BME280_temperature;BME280_humidity;BME280_pressure;Samples;Min_cycle;Max_cycle;Signal;HPM_P1;HPM_P2
2022/08/04 00:02:53;;;;;;;2.05;1.30;;;;;;;23.40;40.66;95960.59;10369114;28;97758;-74
2022/08/04 00:08:05;;;;;;;3.72;1.30;;;;;;;23.33;41.41;95953.50;10372818;28;96957;-74
2022/08/04 00:13:11;;;;;;;1.92;1.13;;;;;;;23.09;42.52;95949.25;10370044;28;96846;-73
2022/08/04 00:18:17;;;;;;;1.92;1.40;;;;;;;22.95;42.69;95946.81;10374644;28;97615;-74
2022/08/04 00:23:20;;;;;;;2.67;1.60;;;;;;;22.91;43.06;95940.34;10372626;28;96744;-73
2022/08/04 00:28:25;;;;;;;2.20;1.50;;;;;;;22.84;43.18;95944.16;10375741;28;97981;-74
2022/08/04 00:33:29;;;;;;;2.85;1.30;;;;;;;22.72;42.66;95946.84;10373139;28;99153;-73
2022/08/04 00:38:34;;;;;;;4.20;1.40;;;;;;;22.52;43.51;95942.66;10376499;28;96807;-73
2022/08/04 00:43:49;;;;;;;3.42;1.10;;;;;;;22.57;43.99;95953.41;10373139;28;99169;-73
2022/08/04 00:49:29;;;;;;;3.17;1.70;;;;;;;22.50;44.61;95951.91;10372069;28;97307;-73
2022/08/04 00:54:38;;;;;;;1.48;1.10;;;;;;;22.18;44.75;95953.00;10366974;28;96879;-73
2022/08/04 01:00:03;;;;;;;2.40;1.20;;;;;;;22.02;45.24;95958.94;10367802;28;97862;-73
2022/08/04 01:05:15;;;;;;;1.45;1.20;;;;;;;21.90;44.68;95958.09;10371319;28;99090;-75
2022/08/04 01:10:28;;;;;;;1.38;1.10;;;;;;;22.00;43.82;95953.06;10367000;28;99152;-73
2022/08/04 01:15:39;;;;;;;2.42;0.90;;;;;;;22.12;43.42;95961.06;10372196;28;98387;-73
2022/08/04 01:21:31;;;;;;;2.58;1.23;;;;;;;22.08;43.84;95958.06;10380164;28;98747;-74
2022/08/04 01:26:52;;;;;;;1.73;1.17;;;;;;;22.12;43.68;95963.72;10373286;28;97835;-73
2022/08/04 01:32:07;;;;;;;2.08;1.10;;;;;;;21.92;44.24;95956.03;10374350;28;98108;-73
2022/08/04 01:37:33;;;;;;;2.15;1.00;;;;;;;21.84;44.47;95954.50;10378160;28;97196;-73
2022/08/04 01:42:38;;;;;;;2.22;1.17;;;;;;;21.88;44.10;95956.50;10379132;28;96920;-73
2022/08/04 01:47:50;;;;;;;3.22;1.10;;;;;;;21.92;44.54;95964.00;10376787;28;97873;-72
2022/08/04 01:52:54;;;;;;;2.45;1.20;;;;;;;21.88;44.41;95956.50;10369021;28;96871;-73
2022/08/04 01:58:00;;;;;;;2.55;1.10;;;;;;;21.78;44.82;95950.91;10375847;28;97129;-73
2022/08/04 02:03:04;;;;;;;2.80;1.27;;;;;;;21.58;45.62;95945.00;10376381;28;97601;-72
2022/08/04 02:08:20;;;;;;;1.48;1.20;;;;;;;21.40;46.52;95951.97;10379072;28;96789;-72
2022/08/04 02:13:29;;;;;;;1.90;1.40;;;;;;;21.25;46.93;95938.25;10378855;28;98677;-73
2022/08/04 02:18:44;;;;;;;4.20;1.60;;;;;;;21.19;47.12;95941.78;10375754;28;96820;-72
2022/08/04 02:23:53;;;;;;;1.70;1.20;;;;;;;21.25;46.90;95943.56;10378563;28;98038;-72
2022/08/04 02:29:03;;;;;;;1.85;1.10;;;;;;;21.24;47.45;95950.72;10375377;28;96821;-73
2022/08/04 02:34:17;;;;;;;2.67;1.30;;;;;;;21.23;47.42;95953.59;10370395;28;97127;-73
2022/08/04 02:39:21;;;;;;;1.45;1.10;;;;;;;21.21;46.95;95950.38;10375631;28;97180;-75
2022/08/04 02:44:28;;;;;;;1.60;1.10;;;;;;;21.15;46.71;95945.94;10377618;28;97789;-73
2022/08/04 02:49:36;;;;;;;1.67;1.30;;;;;;;21.11;46.51;95950.88;10374895;28;99082;-75
2022/08/04 02:54:45;;;;;;;2.33;1.27;;;;;;;21.09;46.85;95953.75;10369982;28;97779;-72
2022/08/04 03:00:05;;;;;;;3.05;1.17;;;;;;;21.04;47.30;95945.63;10375393;28;96847;-72
2022/08/04 03:05:16;;;;;;;2.45;1.45;;;;;;;20.95;47.87;95941.66;10377350;28;96910;-72
2022/08/04 03:10:34;;;;;;;1.50;1.38;;;;;;;20.79;48.50;95953.66;10377028;28;97166;-72
2022/08/04 03:16:01;;;;;;;2.35;1.10;;;;;;;20.73;48.34;95942.00;10371634;28;96818;-73
2022/08/04 03:21:32;;;;;;;2.10;1.40;;;;;;;20.73;48.55;95949.97;10376161;28;96987;-72
2022/08/04 03:26:58;;;;;;;2.97;1.40;;;;;;;20.69;49.01;95950.66;10370707;28;97080;-74
2022/08/04 03:32:43;;;;;;;2.30;1.23;;;;;;;20.62;49.14;95941.94;10375305;28;99392;-72
2022/08/04 03:38:14;;;;;;;4.55;1.50;;;;;;;20.64;48.76;95947.84;10376255;28;98027;-72
2022/08/04 03:43:49;;;;;;;3.45;1.52;;;;;;;20.53;49.08;95949.38;10374015;28;96892;-72
2022/08/04 03:49:37;;;;;;;1.58;1.48;;;;;;;20.48;49.11;95943.91;10372765;28;97303;-72
2022/08/04 03:55:05;;;;;;;3.33;1.52;;;;;;;20.48;49.34;95944.72;10364691;28;96754;-72
2022/08/04 04:00:12;;;;;;;1.50;1.40;;;;;;;20.46;48.21;95945.94;10375362;28;97620;-72
2022/08/04 04:05:49;;;;;;;3.58;1.50;;;;;;;20.35;48.83;95953.56;10372133;28;99384;-72
2022/08/04 04:11:30;;;;;;;2.83;1.63;;;;;;;20.31;48.65;95955.03;10320888;28;98683;-72
2022/08/04 04:16:43;;;;;;;2.53;1.42;;;;;;;20.28;49.09;95952.81;10325362;28;96974;-72
2022/08/04 04:22:08;;;;;;;3.33;1.30;;;;;;;20.17;49.80;95961.47;10316952;28;97430;-72
2022/08/04 04:27:18;;;;;;;;;;;;;;;19.99;48.87;95967.50;10312177;28;96969;-72
2022/08/04 04:32:27;;;;;;;2.85;1.90;;;;;;;19.84;51.22;95967.81;10321250;28;98483;-72
2022/08/04 04:37:44;;;;;;;3.05;1.52;;;;;;;19.80;51.51;95977.16;10316072;28;97397;-72
2022/08/04 04:43:18;;;;;;;3.03;1.67;;;;;;;19.73;51.16;95971.06;10322360;28;97023;-72
2022/08/04 04:48:33;;;;;;;4.00;1.58;;;;;;;19.79;50.77;95971.03;10361433;28;96934;-73
2022/08/04 04:53:47;;;;;;;3.30;1.80;;;;;;;19.92;51.11;95980.81;10367691;28;97127;-72
2022/08/04 04:58:54;;;;;;;2.33;1.60;;;;;;;19.99;50.88;95986.88;10381839;28;99138;-72
2022/08/04 05:04:12;;;;;;;3.22;1.83;;;;;;;20.06;51.34;95986.00;10382440;28;96778;-72
2022/08/04 05:09:38;;;;;;;3.33;1.65;;;;;;;20.19;51.91;95986.75;10378902;28;97013;-72
2022/08/04 05:14:46;;;;;;;3.35;1.80;;;;;;;20.32;51.83;95993.81;10363355;28;97438;-72
2022/08/04 05:19:57;;;;;;;3.97;1.85;;;;;;;20.43;51.93;95992.31;10380575;28;96845;-67
2022/08/04 05:25:06;;;;;;;4.43;1.80;;;;;;;20.57;50.56;95991.16;10374347;28;96833;-69
2022/08/04 05:30:12;;;;;;;2.75;1.77;;;;;;;20.70;51.45;95989.41;10382342;28;96833;-66
2022/08/04 05:35:22;;;;;;;2.88;1.70;;;;;;;20.87;50.63;95992.38;10380987;28;97036;-67
2022/08/04 05:40:45;;;;;;;3.97;1.88;;;;;;;21.02;50.27;95995.50;10381585;28;96814;-67
2022/08/04 05:45:51;;;;;;;4.90;2.15;;;;;;;21.17;50.33;95996.97;10373929;28;98452;-71
2022/08/04 05:50:55;;;;;;;7.07;2.13;;;;;;;21.37;51.11;96002.91;10378369;28;96792;-72
2022/08/04 05:56:06;;;;;;;2.85;1.80;;;;;;;21.65;50.68;96004.25;10371638;28;100582;-67
2022/08/04 06:01:11;;;;;;;3.67;2.05;;;;;;;21.80;50.53;96009.97;10373394;28;96821;-67
2022/08/04 06:06:15;;;;;;;4.13;1.73;;;;;;;21.90;49.64;96009.47;10373236;28;96790;-68
2022/08/04 06:11:19;;;;;;;3.77;1.93;;;;;;;22.12;49.87;96014.28;10379321;28;97290;-67
2022/08/04 06:16:26;;;;;;;;;;;;;;;22.36;49.06;96009.84;10374730;28;99576;-67
2022/08/04 06:21:34;;;;;;;2.95;1.80;;;;;;;22.51;48.15;96006.75;10370709;28;96982;-67
2022/08/04 06:26:39;;;;;;;5.13;2.20;;;;;;;22.54;47.80;96004.44;10371201;28;98707;-68
2022/08/04 06:31:56;;;;;;;4.05;2.15;;;;;;;22.71;48.42;96001.13;10376469;28;98777;-67
2022/08/04 06:37:20;;;;;;;4.43;2.05;;;;;;;22.93;48.11;96002.19;10370265;28;97579;-68
2022/08/04 06:42:44;;;;;;;4.07;2.10;;;;;;;23.11;46.97;96011.09;10374184;28;99258;-67
2022/08/04 06:47:49;;;;;;;4.03;1.75;;;;;;;23.22;46.78;96007.63;10376846;28;99268;-68
2022/08/04 06:52:52;;;;;;;4.82;1.70;;;;;;;23.36;45.38;96009.03;10363643;28;97559;-67
2022/08/04 06:57:57;;;;;;;3.92;1.80;;;;;;;23.51;44.64;96007.72;10370232;28;98852;-67
2022/08/04 07:03:07;;;;;;;1.95;1.50;;;;;;;23.71;44.22;96016.13;10371687;28;97003;-67
2022/08/04 07:08:11;;;;;;;2.38;1.55;;;;;;;23.84;43.71;96011.56;10375630;28;96760;-69
2022/08/04 07:13:14;;;;;;;1.80;1.50;;;;;;;23.97;42.99;96019.31;10377172;28;96686;-67
2022/08/04 07:18:18;;;;;;;4.40;1.90;;;;;;;24.16;43.16;96011.13;10376123;28;96854;-68
2022/08/04 07:23:24;;;;;;;3.05;1.77;;;;;;;24.34;43.07;96018.94;10376112;28;98316;-68
2022/08/04 07:28:28;;;;;;;2.72;1.70;;;;;;;24.53;42.86;96022.19;10376273;28;97350;-67
2022/08/04 07:33:33;;;;;;;1.65;1.55;;;;;;;24.67;42.16;96022.69;10376326;28;97065;-68
2022/08/04 07:38:36;;;;;;;3.03;1.70;;;;;;;24.80;41.85;96022.38;10377454;28;98197;-68
2022/08/04 07:43:51;;;;;;;1.80;1.48;;;;;;;24.95;40.98;96023.69;10377752;28;97260;-68
2022/08/04 07:48:57;;;;;;;2.05;1.70;;;;;;;24.93;40.93;96020.44;10377437;28;96844;-68
2022/08/04 07:54:02;;;;;;;4.50;1.75;;;;;;;24.97;40.82;96005.53;10376371;28;98086;-68
2022/08/04 07:59:06;;;;;;;3.88;1.73;;;;;;;25.19;40.82;96009.06;10377376;28;96887;-68
2022/08/04 08:04:11;;;;;;;2.17;1.55;;;;;;;25.44;40.63;96015.81;10374923;28;96808;-67
2022/08/04 08:09:15;;;;;;;2.47;1.88;;;;;;;25.66;40.22;96013.19;10377778;28;98529;-68
2022/08/04 08:14:19;;;;;;;2.92;1.80;;;;;;;25.76;40.03;96013.31;10377733;28;96793;-68
2022/08/04 08:19:24;;;;;;;3.97;1.80;;;;;;;25.90;39.82;96013.75;10376341;28;97155;-68
2022/08/04 08:24:28;;;;;;;3.33;1.70;;;;;;;26.01;39.70;96017.34;10377309;28;98755;-68
2022/08/04 08:29:34;;;;;;;2.08;1.70;;;;;;;25.90;39.58;95970.91;10376985;28;96701;-68
2022/08/04 08:34:39;;;;;;;1.70;1.58;;;;;;;26.19;39.25;96005.50;10377163;28;96893;-69
2022/08/04 08:39:50;;;;;;;3.55;1.70;;;;;;;26.45;39.32;96009.25;10376604;28;98527;-68
2022/08/04 08:45:20;;;;;;;2.58;1.67;;;;;;;26.77;38.47;96013.00;10376674;28;97654;-68
2022/08/04 08:50:52;;;;;;;2.28;1.88;;;;;;;26.90;37.97;95999.97;10376246;28;97983;-68
2022/08/04 08:56:11;;;;;;;3.53;1.85;;;;;;;27.02;37.79;95997.13;10376965;28;96929;-68
2022/08/04 09:01:37;;;;;;;3.13;1.70;;;;;;;27.11;37.71;95992.88;10376149;28;96740;-68
2022/08/04 09:06:59;;;;;;;1.75;1.60;;;;;;;27.33;37.38;95991.91;10376330;28;97973;-68
2022/08/04 09:12:09;;;;;;;2.25;1.75;;;;;;;27.45;37.11;95986.34;10376076;28;98130;-68
2022/08/04 09:17:20;;;;;;;3.70;1.73;;;;;;;27.55;36.96;95985.59;10368957;28;96849;-68
2022/08/04 09:22:37;;;;;;;3.72;1.60;;;;;;;27.72;36.87;95988.09;10375317;28;97169;-68
2022/08/04 09:27:46;;;;;;;3.63;1.90;;;;;;;27.85;36.80;95984.94;10375127;28;96940;-68
2022/08/04 09:33:01;;;;;;;3.70;2.05;;;;;;;28.14;36.26;95979.91;10375781;28;96853;-68
2022/08/04 09:38:15;;;;;;;3.00;1.67;;;;;;;28.53;35.82;95971.38;10375281;28;96954;-68
2022/08/04 09:43:27;;;;;;;;;;;;;;;28.70;35.75;95965.72;10376249;28;97039;-68
2022/08/04 09:48:55;;;;;;;2.28;1.92;;;;;;;28.85;34.58;95961.41;10382280;28;96834;-68
2022/08/04 09:54:11;;;;;;;2.92;1.58;;;;;;;29.07;34.32;95958.44;10380153;28;98978;-69
2022/08/04 09:59:40;;;;;;;2.72;1.80;;;;;;;29.40;33.81;95958.88;10382279;28;96791;-68
2022/08/04 10:04:44;;;;;;;2.67;1.52;;;;;;;29.50;33.47;95953.47;10381926;28;97497;-68
2022/08/04 10:10:10;;;;;;;3.00;1.63;;;;;;;29.55;33.38;95948.09;10381312;28;98605;-69
2022/08/04 10:15:17;;;;;;;2.85;1.45;;;;;;;29.62;32.92;95937.81;10381880;28;96840;-70
2022/08/04 10:20:30;;;;;;;3.42;1.60;;;;;;;29.80;32.20;95943.66;10378019;28;97380;-69
2022/08/04 10:26:05;;;;;;;3.53;1.45;;;;;;;30.13;31.38;95927.84;10381129;28;96881;-69
2022/08/04 10:31:17;;;;;;;2.33;1.75;;;;;;;30.32;31.01;95923.41;10371867;28;97046;-69
2022/08/04 10:36:23;;;;;;;3.50;1.50;;;;;;;30.54;30.14;95924.84;10380906;28;98966;-68
2022/08/04 10:41:38;;;;;;;3.85;1.58;;;;;;;30.69;29.84;95919.34;10372088;28;97306;-68
2022/08/04 10:46:47;;;;;;;3.58;1.50;;;;;;;30.91;30.38;95904.56;10371328;28;97100;-68
2022/08/04 10:51:59;;;;;;;2.80;1.63;;;;;;;31.06;29.88;95911.72;10374137;28;96965;-69
2022/08/04 10:57:10;;;;;;;3.80;1.50;;;;;;;31.29;29.17;95912.78;10373360;28;97395;-69
2022/08/04 11:02:27;;;;;;;4.55;1.73;;;;;;;31.41;29.37;95900.53;10370319;28;97230;-68
2022/08/04 11:07:33;;;;;;;1.90;1.48;;;;;;;31.49;28.79;95903.69;10374499;28;97448;-71
2022/08/04 11:12:40;;;;;;;3.90;1.30;;;;;;;31.59;28.38;95895.44;10378344;28;96778;-68
2022/08/04 11:17:47;;;;;;;2.13;1.65;;;;;;;31.71;27.71;95892.31;10367270;28;100280;-69
2022/08/04 11:23:06;;;;;;;3.28;1.50;;;;;;;31.64;27.58;95881.06;10368681;28;98309;-69
2022/08/04 11:28:19;;;;;;;2.03;1.30;;;;;;;31.84;26.65;95880.78;10378758;28;96790;-69
2022/08/04 11:33:31;;;;;;;2.65;1.50;;;;;;;31.95;26.56;95866.06;10375325;28;97281;-69
2022/08/04 11:38:44;;;;;;;2.33;1.50;;;;;;;32.24;26.70;95866.97;10378891;28;96940;-69
2022/08/04 11:43:57;;;;;;;2.30;1.90;;;;;;;32.56;25.89;95868.88;10378503;28;96824;-70
2022/08/04 11:49:08;;;;;;;6.00;2.17;;;;;;;32.71;25.75;95857.78;10378277;28;96863;-71
2022/08/04 11:54:12;;;;;;;2.97;1.67;;;;;;;32.88;25.68;95853.69;10368496;28;97169;-71
2022/08/04 11:59:19;;;;;;;1.77;1.40;;;;;;;33.03;25.43;95858.81;10378093;28;96809;-69
2022/08/04 12:04:36;;;;;;;2.15;1.63;;;;;;;33.11;25.29;95851.13;10376754;28;97279;-69
2022/08/04 12:09:47;;;;;;;1.70;1.55;;;;;;;33.29;24.98;95850.19;10377939;28;96901;-70
2022/08/04 12:14:58;;;;;;;1.88;1.52;;;;;;;33.38;24.61;95842.97;10377209;28;96804;-69
2022/08/04 12:20:04;;;;;;;2.08;1.52;;;;;;;33.50;24.56;95845.16;10372856;28;98431;-69
2022/08/04 12:25:33;;;;;;;1.73;1.50;;;;;;;33.68;24.21;95832.59;10365719;28;96817;-70
2022/08/04 12:30:43;;;;;;;1.90;1.50;;;;;;;33.77;24.31;95825.31;10376996;28;97169;-70
2022/08/04 12:36:15;;;;;;;1.90;1.45;;;;;;;33.97;24.25;95818.63;10376759;28;96920;-70
2022/08/04 12:41:27;;;;;;;2.22;1.38;;;;;;;34.19;24.00;95820.56;10377216;28;96761;-70
2022/08/04 12:46:33;;;;;;;2.63;1.50;;;;;;;34.30;23.77;95817.59;10376829;28;97426;-70
2022/08/04 12:51:43;;;;;;;2.60;1.30;;;;;;;34.51;23.49;95815.94;10373880;28;97517;-70
2022/08/04 12:57:08;;;;;;;3.53;1.67;;;;;;;34.53;22.96;95808.28;10376886;28;96874;-70
2022/08/04 13:02:16;;;;;;;3.25;1.25;;;;;;;34.69;23.16;95805.19;10376084;28;96925;-71
2022/08/04 13:07:24;;;;;;;3.38;1.42;;;;;;;34.75;23.18;95795.81;10375699;28;96927;-70
2022/08/04 13:12:28;;;;;;;1.30;1.20;;;;;;;34.88;22.51;95792.16;10376348;28;96860;-70
2022/08/04 13:17:49;;;;;;;2.10;1.63;;;;;;;35.11;22.49;95790.16;10382807;28;96785;-70
2022/08/04 13:22:58;;;;;;;1.40;1.30;;;;;;;35.32;22.57;95773.28;10383209;28;97557;-70
2022/08/04 13:28:02;;;;;;;1.50;1.40;;;;;;;35.46;22.25;95775.84;10383010;28;96838;-70
2022/08/04 13:33:07;;;;;;;2.25;1.50;;;;;;;35.61;22.32;95772.66;10382758;28;97191;-70
2022/08/04 13:38:12;;;;;;;2.10;1.48;;;;;;;35.62;22.38;95766.09;10382767;28;97086;-70
2022/08/04 13:43:25;;;;;;;3.00;1.65;;;;;;;35.78;21.60;95752.06;10376542;28;97377;-70
2022/08/04 13:48:53;;;;;;;3.10;1.40;;;;;;;36.05;21.59;95745.44;10380594;28;97581;-70
2022/08/04 13:54:16;;;;;;;2.05;1.25;;;;;;;36.30;21.51;95753.88;10379494;28;96650;-70
2022/08/04 13:59:22;;;;;;;1.67;1.40;;;;;;;36.60;21.59;95746.56;10380693;28;97044;-70
2022/08/04 14:04:28;;;;;;;2.00;1.40;;;;;;;36.69;21.39;95732.91;10369511;28;96859;-70
2022/08/04 14:09:33;;;;;;;2.67;1.42;;;;;;;36.91;21.10;95745.47;10381562;28;96744;-71
2022/08/04 14:14:46;;;;;;;2.20;1.77;;;;;;;37.32;20.81;95735.78;10381526;28;97113;-70
2022/08/04 14:19:53;;;;;;;1.53;1.43;;;;;;;37.53;20.67;95731.09;10378953;28;96777;-70
2022/08/04 14:24:57;;;;;;;1.92;1.65;;;;;;;38.41;20.05;95730.25;10380256;28;96719;-70
2022/08/04 14:29:59;;;;;;;2.72;1.45;;;;;;;38.75;20.01;95734.50;10379252;28;97155;-70
2022/08/04 14:35:12;;;;;;;1.50;1.40;;;;;;;39.43;19.02;95722.88;10381131;28;97274;-70
2022/08/04 14:40:24;;;;;;;3.15;1.42;;;;;;;40.56;18.48;95723.94;10377700;28;96751;-71
2022/08/04 14:45:34;;;;;;;2.60;1.40;;;;;;;41.93;17.55;95731.22;10380705;28;96794;-71
2022/08/04 14:50:40;;;;;;;2.10;1.20;;;;;;;42.80;16.59;95725.25;10372324;28;97057;-70
2022/08/04 14:55:46;;;;;;;2.97;1.30;;;;;;;43.62;16.32;95711.06;10380099;28;99159;-71
2022/08/04 15:00:50;;;;;;;1.20;1.10;;;;;;;44.42;15.82;95711.53;10380336;28;96815;-71
2022/08/04 15:05:55;;;;;;;1.63;1.30;;;;;;;45.04;14.52;95709.22;10377681;28;96877;-71
2022/08/04 15:11:09;;;;;;;1.83;1.50;;;;;;;45.40;14.97;95723.97;10377849;28;96795;-71
2022/08/04 15:16:28;;;;;;;2.38;1.00;;;;;;;45.47;14.67;95720.47;10368803;28;97143;-72
2022/08/04 15:21:33;;;;;;;2.33;1.30;;;;;;;44.63;14.92;95719.16;10379594;28;96745;-71
2022/08/04 15:26:39;;;;;;;2.15;1.30;;;;;;;43.52;16.01;95715.28;10379624;28;96760;-71
2022/08/04 15:31:44;;;;;;;2.53;1.27;;;;;;;41.61;17.57;95712.19;10378741;28;96901;-71
2022/08/04 15:37:08;;;;;;;5.07;1.55;;;;;;;40.14;18.44;95715.06;10373529;28;96883;-68
2022/08/04 15:42:15;;;;;;;1.85;1.50;;;;;;;39.13;19.53;95695.09;10373532;28;97243;-68
2022/08/04 15:47:23;;;;;;;2.13;1.63;;;;;;;37.91;20.59;95694.69;10375062;28;97902;-68
2022/08/04 15:52:27;;;;;;;3.20;1.42;;;;;;;37.51;21.04;95694.41;10376497;28;96880;-69
2022/08/04 15:57:59;;;;;;;3.22;1.60;;;;;;;38.05;20.48;95696.31;10376408;28;96785;-68
2022/08/04 16:03:02;;;;;;;1.42;1.20;;;;;;;40.04;18.89;95688.25;10370686;28;96974;-68
2022/08/04 16:08:14;;;;;;;2.13;1.40;;;;;;;41.42;17.79;95679.31;10377846;28;96798;-69
2022/08/04 16:13:20;;;;;;;2.72;1.20;;;;;;;40.93;18.04;95688.84;10376253;28;96949;-68
2022/08/04 16:18:42;;;;;;;2.67;1.35;;;;;;;39.54;19.73;95678.66;10370987;28;97684;-68
2022/08/04 16:24:11;;;;;;;2.85;1.33;;;;;;;38.85;20.62;95646.66;10373773;28;98783;-68
2022/08/04 16:29:32;;;;;;;2.53;1.30;;;;;;;40.78;19.45;95684.94;10365484;28;97388;-69
2022/08/04 16:34:37;;;;;;;3.72;1.70;;;;;;;41.46;19.36;95682.91;10376542;28;96714;-68
2022/08/04 16:40:25;;;;;;;3.92;1.60;;;;;;;42.25;18.93;95680.84;10377179;28;96723;-68
2022/08/04 16:45:41;;;;;;;2.80;1.60;;;;;;;41.44;19.04;95677.00;10375871;28;96827;-68
2022/08/04 16:50:52;;;;;;;3.05;1.42;;;;;;;40.31;20.00;95674.84;10380816;28;97064;-68
2022/08/04 16:55:57;;;;;;;2.28;1.48;;;;;;;39.47;20.92;95673.00;10384160;28;96697;-68
2022/08/04 17:01:10;;;;;;;3.78;1.80;;;;;;;38.79;21.85;95674.53;10383777;28;96728;-68
2022/08/04 17:06:23;;;;;;;3.17;1.77;;;;;;;39.17;21.99;95670.59;10376081;28;97610;-68
2022/08/04 17:11:32;;;;;;;2.10;1.55;;;;;;;38.86;22.61;95672.84;10384087;28;96798;-69
2022/08/04 17:16:37;;;;;;;3.88;1.77;;;;;;;38.50;22.91;95662.72;10383667;28;96742;-68
2022/08/04 17:21:40;;;;;;;2.95;1.90;;;;;;;38.34;24.18;95673.50;10383372;28;96795;-68
2022/08/04 17:26:46;;;;;;;4.90;2.45;;;;;;;38.55;25.01;95673.41;10382541;28;97074;-68
2022/08/04 17:31:56;;;;;;;4.60;2.10;;;;;;;37.96;25.87;95662.88;10382835;28;98869;-68
2022/08/04 17:37:02;;;;;;;6.43;2.15;;;;;;;37.26;26.30;95664.34;10382068;28;97461;-72
2022/08/04 17:42:33;;;;;;;4.65;2.50;;;;;;;36.54;27.97;95680.66;10382365;28;96850;-71
2022/08/04 17:47:48;;;;;;;5.13;2.13;;;;;;;36.10;27.50;95671.06;10382958;28;97180;-67
2022/08/04 17:53:00;;;;;;;4.28;1.90;;;;;;;35.85;27.33;95687.94;10382178;28;96787;-69
2022/08/04 17:58:19;;;;;;;3.65;2.10;;;;;;;35.66;28.37;95696.41;10380975;28;97120;-67
2022/08/04 18:03:41;;;;;;;6.07;2.80;;;;;;;35.10;29.24;95707.13;10373733;28;96753;-67
2022/08/04 18:08:54;;;;;;;3.75;2.55;;;;;;;34.67;29.45;95712.47;10380740;28;96656;-70
2022/08/04 18:14:02;;;;;;;4.68;2.80;;;;;;;34.30;29.40;95714.56;10380655;28;96952;-68
2022/08/04 18:19:08;;;;;;;3.50;2.05;;;;;;;34.16;28.34;95718.16;10380483;28;96844;-67
2022/08/04 18:24:12;;;;;;;3.33;2.20;;;;;;;33.94;28.58;95726.31;10378285;28;96915;-67
2022/08/04 18:29:16;;;;;;;3.35;2.72;;;;;;;33.57;29.44;95729.06;10373047;28;97896;-67
2022/08/04 18:34:34;;;;;;;3.92;2.50;;;;;;;33.21;30.63;95731.81;10379373;28;96764;-69
2022/08/04 18:39:42;;;;;;;3.90;2.45;;;;;;;32.95;30.25;95737.75;10379045;28;97124;-67
2022/08/04 18:45:08;;;;;;;;;;;;;;;32.65;30.49;95748.09;10379482;28;98742;-68
2022/08/04 18:50:11;;;;;;;3.35;2.30;;;;;;;32.46;30.89;95747.38;10379548;28;96763;-67
2022/08/04 18:55:34;;;;;;;2.28;1.92;;;;;;;32.25;31.07;95749.63;10380560;28;96962;-66
2022/08/04 19:00:58;;;;;;;4.88;2.22;;;;;;;32.10;30.64;95748.03;10368751;28;97147;-65
2022/08/04 19:06:03;;;;;;;6.20;4.68;;;;;;;31.97;31.12;95752.28;10377002;28;97078;-65
2022/08/04 19:11:09;;;;;;;3.90;2.60;;;;;;;31.67;32.87;95761.69;10346494;28;97401;-65
2022/08/04 19:16:33;;;;;;;3.75;2.10;;;;;;;31.51;31.40;95769.22;10372778;28;98767;-65
2022/08/04 19:21:38;;;;;;;4.63;2.10;;;;;;;31.23;32.00;95774.44;10368799;28;97650;-73
2022/08/04 19:27:03;;;;;;;2.57;1.80;;;;;;;31.10;30.91;95791.34;10373371;28;97041;-72
2022/08/04 19:32:13;;;;;;;1.92;1.60;;;;;;;30.91;31.53;95791.31;10369109;28;97242;-72
2022/08/04 19:37:19;;;;;;;3.72;2.20;;;;;;;30.70;31.56;95799.59;10373615;28;97712;-67
2022/08/04 19:42:42;;;;;;;2.55;1.90;;;;;;;30.56;31.53;95809.47;10369217;28;96778;-68
2022/08/04 19:47:46;;;;;;;2.08;1.77;;;;;;;30.48;31.42;95809.00;10372844;28;98545;-66
2022/08/04 19:53:10;;;;;;;2.05;1.85;;;;;;;30.50;31.72;95832.97;10372236;28;98006;-65
2022/08/04 19:58:21;;;;;;;4.13;1.98;;;;;;;30.41;31.91;95840.09;10370048;28;97627;-65
2022/08/04 20:03:29;;;;;;;4.78;3.70;;;;;;;30.22;33.34;95854.25;10370131;28;97779;-67
2022/08/04 20:08:52;;;;;;;9.07;7.32;;;;;;;30.10;33.58;95854.59;10368911;28;97597;-68
2022/08/04 20:13:58;;;;;;;6.68;3.05;;;;;;;29.91;35.63;95853.66;10377579;28;97223;-68
2022/08/04 20:19:05;;;;;;;4.80;2.65;;;;;;;29.67;36.52;95870.50;10373581;28;97084;-70
2022/08/04 20:24:15;;;;;;;4.15;2.50;;;;;;;29.44;35.96;95874.66;10375729;28;96970;-70
2022/08/04 20:29:38;;;;;;;3.30;2.43;;;;;;;29.37;35.72;95879.53;10369601;28;98481;-68
2022/08/04 20:34:46;;;;;;;4.05;2.10;;;;;;;29.28;35.22;95882.00;10367147;28;96913;-70
2022/08/04 20:39:53;;;;;;;2.63;2.08;;;;;;;29.17;35.18;95888.47;10361485;28;97614;-71
2022/08/04 20:44:57;;;;;;;2.95;2.53;;;;;;;29.09;35.21;95886.34;10364504;28;98229;-70
2022/08/04 20:50:01;;;;;;;3.25;2.38;;;;;;;29.09;36.25;95889.03;10373907;28;98586;-69
2022/08/04 20:55:06;;;;;;;5.07;4.57;;;;;;;29.03;35.66;95884.78;10366811;28;98732;-69
2022/08/04 21:00:10;;;;;;;5.90;2.60;;;;;;;28.90;36.58;95884.25;10372839;28;97178;-70
2022/08/04 21:05:16;;;;;;;4.70;2.33;;;;;;;28.75;37.13;95886.97;10379533;28;96790;-70
2022/08/04 21:10:20;;;;;;;3.55;2.00;;;;;;;28.71;37.34;95893.97;10372571;28;97990;-70
2022/08/04 21:15:24;;;;;;;4.50;2.10;;;;;;;28.68;36.44;95887.25;10369775;28;97677;-70
2022/08/04 21:20:48;;;;;;;;;;;;;;;28.67;36.43;95887.50;10373415;28;96931;-70
2022/08/04 21:25:56;;;;;;;4.93;2.30;;;;;;;28.56;37.02;95900.97;10369604;28;98269;-71
2022/08/04 21:31:00;;;;;;;7.35;2.20;;;;;;;28.52;36.12;95899.91;10373388;28;96786;-70
2022/08/04 21:36:14;;;;;;;4.83;1.73;;;;;;;28.53;35.30;95893.47;10372270;28;97158;-70
2022/08/04 21:41:21;;;;;;;3.55;1.92;;;;;;;28.40;36.27;95902.06;10378772;28;96811;-70
2022/08/04 21:46:29;;;;;;;6.45;2.67;;;;;;;28.15;37.72;95914.38;10374042;28;99307;-70
2022/08/04 21:51:35;;;;;;;3.35;2.15;;;;;;;28.08;37.75;95913.81;10378807;28;96817;-71
2022/08/04 21:56:58;;;;;;;3.25;2.10;;;;;;;27.84;37.35;95903.59;10382872;28;98139;-71
2022/08/04 22:02:07;;;;;;;2.95;2.00;;;;;;;27.81;37.09;95911.38;10378120;28;97726;-71
2022/08/04 22:07:11;;;;;;;5.60;2.10;;;;;;;27.66;37.94;95912.13;10383491;28;97067;-71
2022/08/04 22:12:18;;;;;;;5.05;2.20;;;;;;;27.17;38.64;95912.47;10375881;28;97501;-71
2022/08/04 22:17:22;;;;;;;2.28;2.00;;;;;;;27.00;38.83;95921.50;10377709;28;96877;-71
2022/08/04 22:22:27;;;;;;;4.82;2.33;;;;;;;26.89;37.76;95933.22;10381348;28;97824;-71
2022/08/04 22:32:57;;;;;;;2.40;1.98;;;;;;;26.74;37.53;95945.44;10376960;28;97097;-69
2022/08/04 22:38:03;;;;;;;4.90;2.03;;;;;;;26.92;37.38;95941.53;10369626;28;98365;-70
2022/08/04 22:43:22;;;;;;;4.57;2.10;;;;;;;26.97;37.28;95937.28;10375028;28;96928;-70
2022/08/04 22:48:38;;;;;;;3.67;2.33;;;;;;;26.88;37.90;95926.22;10372889;28;98404;-70
2022/08/04 22:53:46;;;;;;;3.70;2.33;;;;;;;26.75;38.60;95930.97;10373123;28;98830;-70
2022/08/04 22:58:50;;;;;;;3.17;2.30;;;;;;;26.21;39.34;95939.09;10373907;28;96948;-70
2022/08/04 23:03:56;;;;;;;3.90;2.33;;;;;;;25.74;40.60;95942.41;10373882;28;98047;-70
2022/08/04 23:09:00;;;;;;;2.63;2.20;;;;;;;25.61;40.94;95941.69;10374778;28;96800;-70
2022/08/04 23:14:04;;;;;;;4.90;2.30;;;;;;;25.63;40.77;95944.13;10373889;28;97342;-70
2022/08/04 23:19:07;;;;;;;3.67;1.98;;;;;;;25.65;40.84;95944.72;10373388;28;97160;-71
2022/08/04 23:24:15;;;;;;;3.28;2.22;;;;;;;25.57;40.97;95940.59;10373613;28;96843;-71
2022/08/04 23:29:18;;;;;;;4.50;2.30;;;;;;;25.61;42.00;95940.91;10367965;28;97145;-72
2022/08/04 23:34:20;;;;;;;2.17;1.83;;;;;;;25.59;40.98;95949.16;10375649;28;97593;-72
2022/08/04 23:39:25;;;;;;;3.00;1.90;;;;;;;25.61;41.08;95936.34;10373702;28;97900;-72
2022/08/04 23:44:47;;;;;;;;;;;;;;;25.59;40.81;95927.78;10372979;28;98135;-72
2022/08/04 23:49:50;;;;;;;2.97;2.20;;;;;;;25.56;41.10;95928.28;10371302;28;98771;-72
2022/08/04 23:55:01;;;;;;;4.13;2.00;;;;;;;25.50;40.56;95939.94;10369087;28;98852;-72
